Franklin, PA

2:22 PM EDT on April 28, 2017 (GMT -0400)
Venango Regional

Weather History for KFKL - March, 2012

Change the Weather History Date:

Wednesday, March 21, 2012

  Actual Average Record
Temperature  
Mean Temperature 62 °F -  
Max Temperature 75 °F 47 °F 75 °F (2012)
Min Temperature 50 °F 25 °F 7 °F (1949)
Degree Days  
Heating Degree Days 2    
Growing Degree Days 12 (Base 50)    
Moisture  
Dew Point 52 °F    
Average Humidity 70    
Maximum Humidity 100    
Minimum Humidity 44    
Precipitation  
Precipitation 0.00 in - - ()
Sea Level Pressure  
Sea Level Pressure 30.26 in    
Wind  
Wind Speed 7 mph (ESE)    
Max Wind Speed 14 mph    
Max Gust Speed 18 mph    
Visibility 9 miles    
Events      
Averages and records for this station are not official NWS values.
T = Trace of Precipitation, MM = Missing Value Source: NWS Daily Summary

Daily Weather History Graph

Daily Weather History Graph

Search for Another Location

Airport or City:

Trip Planner

Search our weather history database for the weather conditions in past years. The results will help you decide how hot, cold, wet, or windy it might be!

Date:

Astronomy

Mar. 21, 2012 Rise Set
Actual Time 7:20 AM EDT 7:33 PM EDT
Civil Twilight 6:52 AM EDT 8:00 PM EDT
Nautical Twilight 6:20 AM EDT 8:33 PM EDT
Astronomical Twilight 5:47 AM EDT 9:06 PM EDT
Moon 6:30 AM EDT (3/21) 6:58 PM EDT (3/21)
Length of Visible Light 13h 08m
Length of Day
12h 12m
Waning Crescent, 1% of the Moon is Illuminated
Mar 21
Waning Crescent
Mar 22
New
Mar 30
First Quarter
Apr 6
Full
Apr 13
Last Quarter

Hourly Weather History & Observations

Time (EDT) Temp. Dew Point Humidity Pressure Visibility Wind Dir Wind Speed Gust Speed Precip Events Conditions
12:15 AM 59.0 °F 51.8 °F 77% 30.25 in 10.0 mi SE 6.9 mph - N/A   Clear
12:35 AM 59.0 °F 51.8 °F 77% 30.25 in 10.0 mi ESE 6.9 mph - N/A   Clear
1:35 AM 57.2 °F 51.8 °F 82% 30.26 in 10.0 mi ESE 4.6 mph - N/A   Clear
1:55 AM 57.2 °F 51.8 °F 82% 30.27 in 10.0 mi ESE 5.8 mph - N/A   Clear
2:35 AM 55.4 °F 51.8 °F 88% 30.27 in 10.0 mi ESE 4.6 mph - N/A   Clear
2:55 AM 55.4 °F 51.8 °F 88% 30.27 in 10.0 mi SE 4.6 mph - N/A   Clear
3:15 AM 53.6 °F 51.8 °F 94% 30.28 in 10.0 mi SE 4.6 mph - N/A   Clear
3:35 AM 55.4 °F 51.8 °F 88% 30.27 in 10.0 mi ESE 4.6 mph - N/A   Clear
3:55 AM 53.6 °F 51.8 °F 94% 30.27 in 10.0 mi East 4.6 mph - N/A   Clear
4:15 AM 53.6 °F 51.8 °F 94% 30.27 in 10.0 mi ESE 5.8 mph - N/A   Clear
4:35 AM 53.6 °F 51.8 °F 94% 30.27 in 10.0 mi ESE 4.6 mph - N/A   Clear
4:55 AM 51.8 °F 50.0 °F 94% 30.27 in 10.0 mi ESE 5.8 mph - N/A   Clear
5:15 AM 53.6 °F 50.0 °F 88% 30.27 in 10.0 mi East 5.8 mph - N/A   Clear
5:35 AM 53.6 °F 50.0 °F 88% 30.27 in 8.0 mi ESE 5.8 mph - N/A   Clear
5:55 AM 53.6 °F 51.8 °F 94% 30.27 in 7.0 mi East 4.6 mph - N/A   Clear
6:15 AM 51.8 °F 50.0 °F 94% 30.28 in 5.0 mi East 5.8 mph - N/A   Clear
6:35 AM 51.8 °F 50.0 °F 94% 30.28 in 5.0 mi ESE 4.6 mph - N/A   Clear
6:55 AM 51.8 °F 48.2 °F 88% 30.29 in 3.0 mi East 3.5 mph - N/A   Clear
7:15 AM 51.8 °F 48.2 °F 88% 30.29 in 3.0 mi East 4.6 mph - N/A   Clear
7:35 AM 50.0 °F 48.2 °F 94% 30.29 in 1.0 mi East 4.6 mph - N/A   Clear
7:55 AM 50.0 °F 48.2 °F 94% 30.29 in 0.8 mi East 5.8 mph - N/A   Unknown
8:35 AM 53.6 °F 53.6 °F 100% 30.30 in 5.0 mi ESE 5.8 mph - N/A   Clear
8:55 AM 55.4 °F 53.6 °F 94% 30.29 in 7.0 mi ESE 6.9 mph - N/A   Clear
9:15 AM 57.2 °F 53.6 °F 88% 30.30 in 9.0 mi ESE 6.9 mph - N/A   Clear
9:55 AM 60.8 °F 55.4 °F 82% 30.30 in 10.0 mi SE 8.1 mph - N/A   Clear
10:15 AM 62.6 °F 55.4 °F 77% 30.30 in 10.0 mi ESE 5.8 mph - N/A   Clear
10:35 AM 64.4 °F 55.4 °F 73% 30.30 in 10.0 mi ESE 5.8 mph - N/A   Clear
10:55 AM 66.2 °F 55.4 °F 68% 30.30 in 10.0 mi ESE 5.8 mph - N/A   Clear
11:15 AM 66.2 °F 55.4 °F 68% 30.30 in 10.0 mi SE 5.8 mph - N/A   Clear
11:35 AM 69.8 °F 55.4 °F 60% 30.29 in 10.0 mi SE 5.8 mph - N/A   Clear
11:55 AM 71.6 °F 55.4 °F 57% 30.29 in 10.0 mi SE 8.1 mph - N/A   Clear
12:15 PM 71.6 °F 53.6 °F 53% 30.29 in 10.0 mi ESE 9.2 mph - N/A   Clear
12:35 PM 71.6 °F 53.6 °F 53% 30.28 in 10.0 mi SE 3.5 mph - N/A   Clear
12:55 PM 73.4 °F 53.6 °F 50% 30.27 in 10.0 mi ESE 6.9 mph - N/A   Clear
1:15 PM 73.4 °F 53.6 °F 50% 30.28 in 10.0 mi ESE 8.1 mph - N/A   Clear
1:35 PM 73.4 °F 53.6 °F 50% 30.27 in 10.0 mi ESE 8.1 mph - N/A   Clear
1:55 PM 75.2 °F 53.6 °F 47% 30.27 in 10.0 mi SSE 9.2 mph - N/A   Clear
2:15 PM 75.2 °F 53.6 °F 47% 30.25 in 10.0 mi SSE 10.4 mph 18.4 mph N/A   Clear
2:35 PM 73.4 °F 53.6 °F 50% 30.25 in 10.0 mi SSE 10.4 mph - N/A   Clear
2:55 PM 75.2 °F 53.6 °F 47% 30.23 in 10.0 mi ESE 13.8 mph 17.3 mph N/A   Clear
3:15 PM 75.2 °F 53.6 °F 47% 30.22 in 10.0 mi East 10.4 mph - N/A   Clear
3:55 PM 75.2 °F 51.8 °F 44% 30.21 in 10.0 mi SE 11.5 mph - N/A   Scattered Clouds
4:15 PM 75.2 °F 51.8 °F 44% 30.21 in 10.0 mi SE 13.8 mph - N/A   Partly Cloudy
4:35 PM 75.2 °F 51.8 °F 44% 30.20 in 10.0 mi ESE 12.7 mph - N/A   Clear
4:55 PM 75.2 °F 51.8 °F 44% 30.20 in 10.0 mi ESE 8.1 mph - N/A   Clear
5:15 PM 75.2 °F 51.8 °F 44% 30.20 in 10.0 mi South 10.4 mph - N/A   Clear
5:35 PM 73.4 °F 50.0 °F 44% 30.19 in 10.0 mi SE 10.4 mph - N/A   Partly Cloudy
5:55 PM 73.4 °F 51.8 °F 47% 30.20 in 10.0 mi SE 11.5 mph - N/A   Clear
6:15 PM 73.4 °F 51.8 °F 47% 30.19 in 10.0 mi SE 12.7 mph - N/A   Clear
6:35 PM 71.6 °F 51.8 °F 50% 30.20 in 10.0 mi South 10.4 mph - N/A   Clear
6:55 PM 71.6 °F 51.8 °F 50% 30.21 in 10.0 mi SSE 10.4 mph - N/A   Clear
7:15 PM 69.8 °F 51.8 °F 53% 30.21 in 10.0 mi SSE 8.1 mph - N/A   Clear
7:35 PM 66.2 °F 51.8 °F 60% 30.22 in 10.0 mi SE 10.4 mph - N/A   Clear
7:55 PM 66.2 °F 51.8 °F 60% 30.22 in 10.0 mi SE 8.1 mph - N/A   Clear
8:15 PM 66.2 °F 51.8 °F 60% 30.22 in 10.0 mi SE 10.4 mph - N/A   Clear
8:35 PM 64.4 °F 51.8 °F 64% 30.23 in 10.0 mi SE 9.2 mph - N/A   Clear
8:55 PM 64.4 °F 51.8 °F 64% 30.24 in 10.0 mi SE 8.1 mph - N/A   Clear
9:15 PM 64.4 °F 51.8 °F 64% 30.26 in 10.0 mi SE 8.1 mph - N/A   Clear
9:35 PM 62.6 °F 51.8 °F 68% 30.26 in 10.0 mi SE 9.2 mph - N/A   Clear
9:55 PM 62.6 °F 51.8 °F 68% 30.27 in 10.0 mi SSE 8.1 mph - N/A   Clear
10:15 PM 60.8 °F 51.8 °F 72% 30.26 in 10.0 mi SE 10.4 mph - N/A   Clear
10:35 PM 60.8 °F 51.8 °F 72% 30.26 in 10.0 mi SE 11.5 mph - N/A   Clear
10:55 PM 60.8 °F 51.8 °F 72% 30.26 in 10.0 mi SE 11.5 mph - N/A   Clear
11:15 PM 60.8 °F 51.8 °F 72% 30.26 in 10.0 mi SE 10.4 mph - N/A   Clear
11:35 PM 59.0 °F 51.8 °F 77% 30.25 in 10.0 mi SE 10.4 mph - N/A   Clear
11:55 PM 59.0 °F 51.8 °F 77% 30.25 in 10.0 mi SE 9.2 mph - N/A   Clear